Saturday, July 23, 2016, 5:05 PM EDT

KOFP, Hanover County Municipal

Location: Ashland, VA, United States Lat: 37.7
Local Time: 5:05 PM EDT (21:05 GMT) Lon: -77.433
Time Zone: US/Eastern Elev: 203 ft

Show me the last for .
Show Decoded

2016-07-23 15:54 METAR KOFP 231954Z AUTO VRB05KT 10SM BKN060 34/22 A2994 RMK AO2 SLP136 T03390217
                 $ =
2016-07-23 14:54 METAR KOFP 231854Z AUTO VRB04KT 10SM FEW055 36/22 A2995 RMK AO2 SLP138 T03560217
                 $ =
2016-07-23 13:54 METAR KOFP 231754Z AUTO VRB06KT 10SM CLR 35/21 A2996 RMK AO2 SLP143 T03500211
                 10350 20261 $ =
2016-07-23 12:54 METAR KOFP 231654Z AUTO 02004KT 10SM 34/21 A2998 RMK AO2 SLP148 T03390206 $ =
2016-07-23 11:54 METAR KOFP 231554Z AUTO 36003KT 10SM CLR 33/21 A2999 RMK AO2 SLP152 T03330206 =
2016-07-23 10:54 METAR KOFP 231454Z AUTO 00000KT 10SM CLR 33/21 A2999 RMK AO2 SLP153 T03280211
                 53003 =
2016-07-23 09:54 METAR KOFP 231354Z AUTO 05003KT 10SM CLR 31/23 A2999 RMK AO2 SLP152 T03110228 =
2016-07-23 08:54 METAR KOFP 231254Z AUTO 05003KT 8SM CLR 29/22 A2998 RMK AO2 SLP150 T02890222 =
2016-07-23 07:54 METAR KOFP 231154Z AUTO 00000KT 7SM CLR 26/22 A2998 RMK AO2 SLP150 T02610222
                 10267 20222 51011 =
2016-07-23 06:54 METAR KOFP 231054Z AUTO 00000KT 4SM BR CLR 23/21 A2997 RMK AO2 SLP147 T02280211
                 =
2016-07-23 06:47 METAR KOFP 231047Z AUTO 00000KT 4SM BR CLR 22/21 A2997 RMK AO2 T02220211 =
2016-07-23 06:26 METAR KOFP 231026Z AUTO 00000KT 2 1/2SM BR CLR 22/21 A2997 RMK AO2 T02220211 =
2016-07-23 06:19 METAR KOFP 231019Z AUTO 00000KT 3SM BR CLR 22/21 A2997 RMK AO2 T02220211 =
2016-07-23 06:12 METAR KOFP 231012Z AUTO 00000KT 2 1/2SM BR CLR 22/21 A2997 RMK AO2 VIS 1 3/4V4
                 T02220211 =
2016-07-23 05:54 METAR KOFP 230954Z AUTO 00000KT 4SM BR CLR 23/21 A2996 RMK AO2 SLP144 T02280211
                 =
2016-07-23 04:54 METAR KOFP 230854Z AUTO 19003KT 4SM BR CLR 23/22 A2995 RMK AO2 SLP139 T02280217
                 56006 =
2016-07-23 03:54 METAR KOFP 230754Z AUTO 00000KT 7SM CLR 23/22 A2996 RMK AO2 SLP141 T02330217 =
2016-07-23 02:54 METAR KOFP 230654Z AUTO 20004KT 7SM CLR 23/22 A2996 RMK AO2 SLP143 T02330217 =
2016-07-23 01:54 METAR KOFP 230554Z AUTO 22003KT 10SM CLR 26/22 A2997 RMK AO2 SLP146 T02610222
                 10278 20233 58002 =
2016-07-23 00:54 METAR KOFP 230454Z AUTO 00000KT 9SM CLR 23/21 A2998 RMK AO2 SLP148 T02330211
                 403390211 =
2016-07-22 23:54 METAR KOFP 230354Z AUTO 00000KT 9SM CLR 24/21 A2998 RMK AO2 SLP150 T02390211 =
2016-07-22 22:54 METAR KOFP 230254Z AUTO 00000KT 9SM CLR 24/21 A2997 RMK AO2 SLP147 T02390211
                 53008 =
2016-07-22 21:54 METAR KOFP 230154Z AUTO 00000KT 10SM CLR 25/21 A2997 RMK AO2 SLP145 T02500211 =
2016-07-22 20:54 METAR KOFP 230054Z AUTO 00000KT 9SM CLR 26/22 A2995 RMK AO2 SLP139 T02560217 =
2016-07-22 19:54 METAR KOFP 222354Z AUTO 00000KT 10SM CLR 28/22 A2995 RMK AO2 SLP139 T02780217
                 10339 20278 55011 =
2016-07-22 18:54 METAR KOFP 222254Z AUTO 25006KT 10SM CLR 32/17 A2995 RMK AO2 SLP138 T03220172 =
2016-07-22 17:54 METAR KOFP 222154Z AUTO 25006KT 10SM CLR 33/19 A2996 RMK AO2 SLP141 T03280194 =

Support USWX by starting your Amazon purchase here.